Database: COMPET-N - COOP - 3PL - 4PL - CNDOOM

WAD: Doom | Doom 2 | TNT | Plutonia | AV | HR | Scythe | MM | MM2 | Requiem | CE
Category: speed | nmare | max | nm100s | tyson | pacifist | fast | respawn | nomo | misc | built | all
Highscore: ALL | IWAD | PWAD | Country | Continent

< Previous map       Next map >
Remove: wad | map | category | player | allMAP02
MapPlayerTimeDateFilenameCommentsDL
MAP02: UnderhallsLawrence Kirby1:25.001995-07-05lv02-125.zip793
MAP02: UnderhallsAndreas Kren1:11.001995-09-17lv02-111.zip521
MAP02: UnderhallsDaniel Lindgren1:05.001995-11-23lv02-105.zip609
MAP02: UnderhallsAndreas Kren1:04.001995-12-10lv02-104.zip510
MAP02: UnderhallsDaniel Lindgren1:03.001995-11-27lv02-103.zip608
MAP02: UnderhallsAndreas Kren1:00.001996-01-18lv02-100.zip524
MAP02: UnderhallsDaniel Lindgren57.001996-02-24lv02-057.zip599
MAP02: UnderhallsDanny Lancashire56.001996-05-19lv02-056.zip663
MAP02: UnderhallsDaniel Lindgren55.001996-08-24lv02-055.zip611
MAP02: UnderhallsDaniel Lindgren49.001996-08-28lv02-049.zip555
MAP02: UnderhallsAnders Johnsen46.001998-05-23lv02-046.zip609
MAP02: UnderhallsAnders Johnsen44.001999-01-09lv02-044.zip583
MAP02: UnderhallsAdam Hegyi42.002000-08-24lv02-042.zip652
MAP02: UnderhallsHenning Skogsto41.002000-11-18lv02-041.zip598
MAP02: UnderhallsAdam Williamson40.002001-12-16lv02-040.zip1017
MAP02: UnderhallsAndreas Kren1:27.001995-10-13lv02-nm1.zip513
MAP02: UnderhallsDaniel Lindgren1:23.001995-11-23lv02-123.zip569
MAP02: UnderhallsIstvan Pataki1:03.001997-05-12nm02-103.zip525
MAP02: UnderhallsThomas Pilger1:00.001998-07-16nm02-100.zip550
MAP02: UnderhallsIstvan Pataki59.001998-12-31nm02-059.zip536
MAP02: UnderhallsAdam Hegyi58.001999-01-02nm02-058.zip621
MAP02: UnderhallsAndy Kempling57.001998-09-05nm02-057.zip564
MAP02: UnderhallsThomas Pilger54.001999-01-05nm02-054.zip583
MAP02: UnderhallsHenning Skogsto49.001999-10-02nm02-049.zip571
MAP02: UnderhallsDrew DeVore48.002001-11-06nm02-048.zip652
MAP02: UnderhallsHenning Skogsto46.002001-11-19nm02-046.zip588
MAP02: UnderhallsJuho Ruohonen45.002002-12-06nm02-045.zip578
MAP02: UnderhallsHi Jango44.002005-10-27nm02-044.zip909
MAP02: UnderhallsSteven Towle3:38.001995-12-08lv02-338.zip480
MAP02: UnderhallsSimon Widlake2:40.001995-12-19lv02-240.zip526
MAP02: UnderhallsAndreas Kren1:45.001995-12-22lv02-145.zip551
MAP02: UnderhallsSven Huth1:41.001995-11-18lv02-141.zip751
MAP02: UnderhallsDaniel Lindgren1:36.001996-01-27lv02-136.zip530
MAP02: UnderhallsMichael Kren1:33.001996-05-01lv02-133.zip411
MAP02: UnderhallsKai-Uwe Humpert1:29.001996-03-30lv02-129.zip559
MAP02: UnderhallsDaniel Lindgren1:28.001996-04-02lv02-128.zip580
MAP02: UnderhallsDaniel Lindgren1:22.001996-07-26lv02-122.zip579
MAP02: UnderhallsAnders Johnsen1:21.001998-06-20lv02-121.zip632
MAP02: UnderhallsAnders Johnsen1:17.001998-06-22lv02-117.zip578
MAP02: UnderhallsRadek Pecka1:14.002000-08-06lv02-114.zip574
MAP02: UnderhallsRadek Pecka1:12.002001-06-26lv02-112.zip600
MAP02: UnderhallsAnders Johnsen1:10.002001-11-26lv02-110.zip621
MAP02: UnderhallsAnders Johnsen1:08.002002-12-22lv02-108.zip616
MAP02: UnderhallsRadek Pecka1:07.002004-01-15lv02-107.zip593
MAP02: UnderhallsLooper 1:03.002014-04-17lv02-103.zip1715
MAP02: UnderhallsHi Jango44.002005-10-27ns02-044.zip966
MAP02: UnderhallsDaniel Lindgren6:10.001997-06-29ty02-610.zip562
MAP02: UnderhallsAndy Kempling5:32.001999-03-07ty02-532.zip534
MAP02: UnderhallsAnders Johnsen4:59.001999-03-17ty02-459.zip575
MAP02: UnderhallsAdam Williamson4:47.001999-07-09ty02-447.zip582
MAP02: UnderhallsAnders Johnsen3:31.002000-02-09ty02-331.zip597
MAP02: UnderhallsRadek Pecka3:19.002003-12-21ty02-319.zip543
MAP02: UnderhallsJim Leonard2:57.002006-01-29ty02-257.zip978
MAP02: UnderhallsAndy Olivera4:05.001996-03-14fa02-405.zip711
MAP02: UnderhallsPeo Sjoblom2:41.001996-05-16fa02-241.zip531
MAP02: UnderhallsPeo Sjoblom2:21.001996-05-21fa02-221.zip525
MAP02: UnderhallsPeo Sjoblom2:05.001996-05-31fa02-205.zip554
MAP02: UnderhallsThomas Zajic1:32.001996-06-08fa02-132.zip497
MAP02: UnderhallsDaniel Lindgren1:30.001996-07-04fa02-130.zip571
MAP02: UnderhallsAnders Johnsen1:24.001998-09-29fa02-124.zip609
MAP02: UnderhallsRadek Pecka1:21.002001-03-16fa02-121.zip603
MAP02: UnderhallsIan Sabourin1:11.002001-12-16fa02-111.zip577
MAP02: UnderhallsRadek Pecka1:10.002003-01-22fa02-110.zip568
MAP02: UnderhallsRadek Pecka1:08.002004-01-14fa02-108.zip889
MAP02: UnderhallsThomas Zajic2:05.001996-10-27re02-205.zip482
MAP02: UnderhallsSteffen Udluft1:53.001997-08-27re02-153.zip574
MAP02: UnderhallsThomas Pilger1:47.001998-01-11re02-147.zip600
MAP02: UnderhallsAdam Hegyi1:25.001998-04-26re02-125.zip626
MAP02: UnderhallsAnders Johnsen1:20.001998-09-17re02-120.zip596
MAP02: UnderhallsArno Slagboom1:18.002000-07-22re02-118.zip506
MAP02: UnderhallsRadek Pecka1:14.002000-08-20re02-114.zip604
MAP02: UnderhallsRadek Pecka1:10.002003-01-01re02-110.zip650
MAP02: UnderhallsLooper 1:07.002015-04-07re02-107.zip1155
MAP02: UnderhallsArno Slagboom31.661999-10-08d0203166.zip531
MAP02: UnderhallsZvonimir Bužanić29.232012-11-07d0202923.zip629
MAP02: UnderhallsAdam Hegyi26.942000-05-08d0202694.zip675
MAP02: UnderhallsMarijo Sedlić26.392000-05-22d0202639.zip606
MAP02: UnderhallsIan Sabourin24.972001-11-22d0202497.zip1292
Remove: wad | map | category | player | all